createdAt,value
2024-04-22T00:01:06.773Z,101188.25
2024-04-22T00:03:08.619Z,101187.78
2024-04-22T00:05:13.098Z,101181.91
2024-04-22T00:07:16.675Z,101181.91
2024-04-22T00:09:18.479Z,101174.81
2024-04-22T00:11:20.421Z,101178.00
2024-04-22T00:13:22.419Z,101188.19
2024-04-22T00:15:24.452Z,101188.97
2024-04-22T00:17:26.401Z,101189.25
2024-04-22T00:19:28.280Z,101181.41
2024-04-22T00:21:32.818Z,101184.91
2024-04-22T00:23:34.671Z,101183.03
2024-04-22T00:25:36.493Z,101185.97
2024-04-22T00:27:38.372Z,101177.91
2024-04-22T00:29:40.171Z,101179.44
2024-04-22T00:31:41.962Z,101182.97
2024-04-22T00:33:43.757Z,101188.22
2024-04-22T00:35:55.286Z,101185.06
2024-04-22T00:37:59.738Z,101185.56
2024-04-22T00:40:01.776Z,101183.69
2024-04-22T00:42:03.603Z,101184.50
2024-04-22T00:44:12.471Z,101181.56
2024-04-22T00:46:14.710Z,101191.81
2024-04-22T00:48:19.047Z,101185.31
2024-04-22T00:50:21.238Z,101187.50
2024-04-22T00:52:23.317Z,101196.06
2024-04-22T00:54:28.010Z,101192.22
2024-04-22T00:56:29.958Z,101191.16
2024-04-22T00:58:32.056Z,101193.28
2024-04-22T01:00:35.430Z,101191.91
2024-04-22T01:02:37.389Z,101199.28
2024-04-22T01:04:41.641Z,101192.28
2024-04-22T01:06:43.644Z,101198.13
2024-04-22T01:08:46.576Z,101206.41
2024-04-22T01:10:51.361Z,101205.34
2024-04-22T01:12:53.380Z,101198.94
2024-04-22T01:14:55.307Z,101198.13
2024-04-22T01:16:57.289Z,101194.88
2024-04-22T01:18:59.099Z,101197.78
2024-04-22T01:21:01.060Z,101194.78
2024-04-22T01:23:05.536Z,101190.25
2024-04-22T01:25:08.860Z,101194.31
2024-04-22T01:27:11.811Z,101185.19
2024-04-22T01:29:13.580Z,101187.88
2024-04-22T01:31:17.060Z,101179.84
2024-04-22T01:33:18.863Z,101189.72
2024-04-22T01:35:20.671Z,101184.63
2024-04-22T01:37:22.494Z,101179.66
2024-04-22T01:39:26.898Z,101186.53
2024-04-22T01:41:28.755Z,101186.78
2024-04-22T01:43:30.647Z,101180.25
2024-04-22T01:45:32.596Z,101180.03
2024-04-22T01:47:34.446Z,101182.72
2024-04-22T01:49:36.466Z,101186.09
2024-04-22T01:51:38.271Z,101189.41
2024-04-22T01:53:40.160Z,101191.38
2024-04-22T01:55:44.689Z,101186.00
2024-04-22T01:57:46.529Z,101187.09
2024-04-22T01:59:49.013Z,101184.41
2024-04-22T02:01:50.921Z,101189.91
2024-04-22T02:03:52.775Z,101186.97
2024-04-22T02:05:54.683Z,101191.88
2024-04-22T02:07:56.460Z,101187.31
2024-04-22T02:10:05.953Z,101191.38
2024-04-22T02:12:17.428Z,101184.16
2024-04-22T02:14:19.239Z,101187.66
2024-04-22T02:16:21.053Z,101183.34
2024-04-22T02:18:22.934Z,101193.59
2024-04-22T02:20:24.731Z,101190.69
2024-04-22T02:22:26.549Z,101194.41
2024-04-22T02:24:28.284Z,101190.81
2024-04-22T02:26:30.157Z,101196.72
2024-04-22T02:28:34.797Z,101195.03
2024-04-22T02:30:36.650Z,101184.19
2024-04-22T02:32:38.493Z,101184.53
2024-04-22T02:34:40.414Z,101190.72
2024-04-22T02:36:42.183Z,101190.94
2024-04-22T02:38:43.996Z,101187.44
2024-04-22T02:40:45.848Z,101189.53
2024-04-22T02:42:47.572Z,101185.47
2024-04-22T02:44:51.863Z,101178.81
2024-04-22T02:46:53.706Z,101183.63
2024-04-22T02:48:55.581Z,101184.69
2024-04-22T02:51:02.121Z,101185.13
2024-04-22T02:53:04.515Z,101185.84
2024-04-22T02:55:07.161Z,101187.50
2024-04-22T02:57:09.131Z,101194.38
2024-04-22T02:59:11.164Z,101191.09
2024-04-22T03:01:15.885Z,101192.72
2024-04-22T03:03:17.830Z,101181.44
2024-04-22T03:05:19.679Z,101185.06
2024-04-22T03:07:21.452Z,101186.69
2024-04-22T03:09:23.285Z,101186.03
2024-04-22T03:11:25.041Z,101180.19
2024-04-22T03:13:27.322Z,101177.19
2024-04-22T03:15:29.052Z,101173.41
2024-04-22T03:17:33.605Z,101177.03
2024-04-22T03:19:35.500Z,101175.44
2024-04-22T03:21:37.222Z,101165.25
2024-04-22T03:23:39.063Z,101169.81
2024-04-22T03:25:40.888Z,101155.38
2024-04-22T03:27:42.704Z,101160.81
2024-04-22T03:29:44.556Z,101169.94
2024-04-22T03:31:46.429Z,101161.91
2024-04-22T03:33:53.125Z,101162.13
2024-04-22T03:36:00.464Z,101156.53
2024-04-22T03:38:02.225Z,101157.81
2024-04-22T03:40:04.531Z,101158.06
2024-04-22T03:42:06.603Z,101155.59
2024-04-22T03:44:08.539Z,101150.22
2024-04-22T03:46:10.326Z,101152.81
2024-04-22T03:48:12.122Z,101151.78
2024-04-22T03:50:16.684Z,101152.56
2024-04-22T03:52:19.379Z,101154.78
2024-04-22T03:54:21.260Z,101147.22
2024-04-22T03:56:23.094Z,101146.16
2024-04-22T03:58:24.900Z,101147.81
2024-04-22T04:00:26.752Z,101143.63
2024-04-22T04:02:28.517Z,101148.75
2024-04-22T04:04:30.413Z,101147.13
2024-04-22T04:06:35.018Z,101155.75
2024-04-22T04:08:36.855Z,101153.06
2024-04-22T04:10:38.661Z,101157.59
2024-04-22T04:12:40.575Z,101152.47
2024-04-22T04:14:42.311Z,101152.47
2024-04-22T04:16:44.133Z,101157.84
2024-04-22T04:18:45.946Z,101159.69
2024-04-22T04:20:47.759Z,101153.75
2024-04-22T04:22:52.369Z,101148.38
2024-04-22T04:24:54.050Z,101145.38
2024-04-22T04:26:55.833Z,101151.44
2024-04-22T04:28:57.739Z,101148.53
2024-04-22T04:31:01.650Z,101149.34
2024-04-22T04:33:03.984Z,101156.00
2024-04-22T04:35:08.247Z,101152.47
2024-04-22T04:37:10.459Z,101152.47
2024-04-22T04:39:14.921Z,101160.75
2024-04-22T04:41:16.751Z,101157.16
2024-04-22T04:43:18.606Z,101155.53
2024-04-22T04:45:20.440Z,101159.00
2024-04-22T04:47:22.225Z,101160.28
2024-04-22T04:49:24.333Z,101166.69
2024-04-22T04:51:26.206Z,101174.72
2024-04-22T04:53:27.963Z,101167.19
2024-04-22T04:55:32.484Z,101170.53
2024-04-22T04:57:34.315Z,101178.72
2024-04-22T04:59:36.243Z,101180.31
2024-04-22T05:01:38.268Z,101173.81
2024-04-22T05:03:40.221Z,101179.38
2024-04-22T05:05:42.099Z,101174.59
2024-04-22T05:07:43.892Z,101177.88
2024-04-22T05:09:45.952Z,101182.63
2024-04-22T05:11:50.970Z,101178.72
2024-04-22T05:13:53.053Z,101185.66
2024-04-22T05:15:54.855Z,101180.78
2024-04-22T05:17:56.702Z,101188.13
2024-04-22T05:19:58.552Z,101182.53
2024-04-22T05:22:00.395Z,101185.22
2024-04-22T05:24:09.532Z,101184.88
2024-04-22T05:26:11.256Z,101189.75
2024-04-22T05:28:15.798Z,101191.41
2024-04-22T05:30:17.783Z,101183.34
2024-04-22T05:32:20.273Z,101190.09
2024-04-22T05:34:22.172Z,101191.94
2024-04-22T05:36:23.967Z,101186.72
2024-04-22T05:38:25.776Z,101183.72
2024-04-22T05:40:27.544Z,101188.47
2024-04-22T05:42:29.298Z,101185.94
2024-04-22T05:44:33.712Z,101182.41
2024-04-22T05:46:35.469Z,101186.97
2024-04-22T05:48:37.515Z,101181.25
2024-04-22T05:50:39.435Z,101178.69
2024-04-22T05:52:41.349Z,101180.09
2024-04-22T05:54:43.162Z,101175.31
2024-04-22T05:56:45.000Z,101177.84
2024-04-22T05:58:46.958Z,101182.53
2024-04-22T06:00:51.425Z,101180.66
2024-04-22T06:02:53.259Z,101175.44
2024-04-22T06:04:55.154Z,101181.13
2024-04-22T06:06:57.179Z,101184.00
2024-04-22T06:08:59.138Z,101179.56
2024-04-22T06:11:03.936Z,101184.34
2024-04-22T06:13:05.920Z,101188.50
2024-04-22T06:15:08.160Z,101188.13
2024-04-22T06:17:12.772Z,101182.63
2024-04-22T06:19:14.634Z,101179.59
2024-04-22T06:21:16.405Z,101176.19
2024-04-22T06:23:19.589Z,101183.28
2024-04-22T06:25:23.549Z,101174.03
2024-04-22T06:27:25.335Z,101185.66
2024-04-22T06:29:27.328Z,101186.84
2024-04-22T06:31:29.158Z,101181.53
2024-04-22T06:33:33.627Z,101180.25
2024-04-22T06:35:35.381Z,101170.75
2024-04-22T06:37:37.306Z,101174.00
2024-04-22T06:39:39.261Z,101182.13
2024-04-22T06:41:41.262Z,101166.94
2024-04-22T06:43:44.574Z,101172.72
2024-04-22T06:45:46.405Z,101169.56
2024-04-22T06:47:48.613Z,101172.06
2024-04-22T06:49:53.111Z,101170.81
2024-04-22T06:51:55.152Z,101172.22
2024-04-22T06:53:57.018Z,101169.59
2024-04-22T06:55:58.971Z,101164.38
2024-04-22T06:58:03.117Z,101163.25
2024-04-22T07:00:06.069Z,101169.81
2024-04-22T07:02:15.105Z,101166.69
2024-04-22T07:04:20.291Z,101175.06
2024-04-22T07:06:24.935Z,101170.06
2024-04-22T07:08:26.837Z,101170.94
2024-04-22T07:10:28.713Z,101168.09
2024-04-22T07:12:30.880Z,101162.22
2024-04-22T07:14:32.688Z,101159.84
2024-04-22T07:16:34.558Z,101155.59
2024-04-22T07:18:36.366Z,101172.16
2024-04-22T07:20:38.195Z,101162.03
2024-04-22T07:22:43.583Z,101168.03
2024-04-22T07:24:54.844Z,101164.31
2024-04-22T07:27:07.759Z,101156.88
2024-04-22T07:29:13.330Z,101166.34
2024-04-22T07:31:16.296Z,101157.00
2024-04-22T07:33:18.825Z,101160.84
2024-04-22T07:35:21.723Z,101161.47
2024-04-22T07:37:30.701Z,101161.78
2024-04-22T07:39:36.387Z,101161.34
2024-04-22T07:41:38.889Z,101157.31
2024-04-22T07:43:40.677Z,101158.13
2024-04-22T07:45:42.428Z,101153.34
2024-04-22T07:47:44.788Z,101153.91
2024-04-22T07:49:46.905Z,101149.38
2024-04-22T07:51:48.839Z,101153.47
2024-04-22T07:53:51.162Z,101152.13
2024-04-22T07:55:56.198Z,101150.84
2024-04-22T07:57:59.677Z,101151.63
2024-04-22T08:00:04.076Z,101150.44
2024-04-22T08:02:06.975Z,101148.81
2024-04-22T08:04:09.755Z,101154.81
2024-04-22T08:06:16.866Z,101148.59
2024-04-22T08:08:20.284Z,101156.38
2024-04-22T08:10:22.179Z,101148.88
2024-04-22T08:12:26.768Z,101151.91
2024-04-22T08:14:28.808Z,101150.06
2024-04-22T08:16:33.188Z,101145.44
2024-04-22T08:18:35.144Z,101145.47
2024-04-22T08:20:37.278Z,101151.44
2024-04-22T08:22:39.405Z,101149.88
2024-04-22T08:24:41.504Z,101149.34
2024-04-22T08:26:43.304Z,101157.19
2024-04-22T08:28:47.922Z,101147.00
2024-04-22T08:30:49.955Z,101152.44
2024-04-22T08:32:51.864Z,101159.41
2024-04-22T08:34:54.079Z,101144.38
2024-04-22T08:36:56.117Z,101147.38
2024-04-22T08:38:57.992Z,101148.66
2024-04-22T08:41:00.506Z,101147.84
2024-04-22T08:43:02.772Z,101145.75
2024-04-22T08:45:08.376Z,101151.41
2024-04-22T08:47:10.418Z,101144.91
2024-04-22T08:49:12.323Z,101145.75
2024-04-22T08:51:14.970Z,101144.72
2024-04-22T08:53:17.107Z,101138.28
2024-04-22T08:55:19.315Z,101150.69
2024-04-22T08:57:21.329Z,101144.50
2024-04-22T08:59:33.192Z,101146.63
2024-04-22T09:01:42.616Z,101145.31
2024-04-22T09:03:44.986Z,101143.16
2024-04-22T09:05:47.347Z,101133.72
2024-04-22T09:07:52.355Z,101132.94
2024-04-22T09:10:14.701Z,101135.63
2024-04-22T09:12:18.381Z,101141.06
2024-04-22T09:14:21.205Z,101133.50
2024-04-22T09:16:26.025Z,101135.91
2024-04-22T09:18:31.094Z,101133.22
2024-04-22T09:20:33.323Z,101135.34
2024-04-22T09:22:35.277Z,101136.63
2024-04-22T09:24:37.257Z,101138.94
2024-04-22T09:26:39.068Z,101135.66
2024-04-22T09:28:42.010Z,101145.94
2024-04-22T09:30:50.012Z,101128.69
2024-04-22T09:32:53.851Z,101134.09
2024-04-22T09:35:16.505Z,101131.66
2024-04-22T09:37:21.129Z,101132.75
2024-04-22T09:39:24.243Z,101130.94
2024-04-22T09:41:27.465Z,101125.53
2024-04-22T09:43:30.443Z,101123.13
2024-04-22T09:45:34.140Z,101125.53
2024-04-22T09:47:36.952Z,101122.63
2024-04-22T09:49:40.909Z,101123.44
2024-04-22T09:51:46.213Z,101120.53
2024-04-22T09:53:48.450Z,101123.25
2024-04-22T09:55:53.447Z,101115.41
2024-04-22T09:57:56.416Z,101126.75
2024-04-22T09:59:59.488Z,101110.00
2024-04-22T10:02:01.685Z,101114.34
2024-04-22T10:04:03.959Z,101118.41
2024-04-22T10:06:10.381Z,101123.53
2024-04-22T10:08:17.042Z,101111.91
2024-04-22T10:10:19.554Z,101110.56
2024-04-22T10:12:25.894Z,101114.31
2024-04-22T10:14:28.223Z,101104.59
2024-04-22T10:16:30.193Z,101105.13
2024-04-22T10:18:32.628Z,101109.44
2024-04-22T10:20:35.785Z,101096.75
2024-04-22T10:22:38.652Z,101091.34
2024-04-22T10:24:43.101Z,101090.22
2024-04-22T10:26:56.269Z,101092.94
2024-04-22T10:29:03.720Z,101087.25
2024-04-22T10:31:05.551Z,101087.81
2024-04-22T10:33:07.642Z,101078.28
2024-04-22T10:35:09.681Z,101085.88
2024-04-22T10:37:11.645Z,101085.91
2024-04-22T10:39:13.578Z,101086.72
2024-04-22T10:41:19.593Z,101095.91
2024-04-22T10:43:21.719Z,101091.84
2024-04-22T10:45:23.958Z,101089.97
2024-04-22T10:47:26.159Z,101085.66
2024-04-22T10:49:28.623Z,101094.31
2024-04-22T10:51:30.665Z,101088.38
2024-04-22T10:53:36.109Z,101082.16
2024-04-22T10:55:39.432Z,101077.81
2024-04-22T10:57:44.555Z,101077.53
2024-04-22T10:59:46.377Z,101074.84
2024-04-22T11:01:48.792Z,101072.94
2024-04-22T11:03:50.966Z,101065.03
2024-04-22T11:05:59.473Z,101071.47
2024-04-22T11:08:02.711Z,101063.28
2024-04-22T11:10:05.565Z,101061.31
2024-04-22T11:12:08.717Z,101053.44
2024-04-22T11:14:14.586Z,101048.13
2024-04-22T11:16:16.494Z,101045.53
2024-04-22T11:18:19.698Z,101039.97
2024-04-22T11:20:21.916Z,101050.25
2024-04-22T11:22:24.085Z,101046.09
2024-04-22T11:24:26.080Z,101047.91
2024-04-22T11:26:29.393Z,101048.69
2024-04-22T11:28:31.523Z,101053.81
2024-04-22T11:30:37.757Z,101054.34
2024-04-22T11:32:41.222Z,101055.97
2024-04-22T11:34:43.251Z,101052.84
2024-04-22T11:36:45.081Z,101053.41
2024-04-22T11:38:46.921Z,101043.41
2024-04-22T11:40:49.192Z,101048.31
2024-04-22T11:42:51.106Z,101051.56
2024-04-22T11:44:52.965Z,101059.13
2024-04-22T11:46:57.422Z,101057.56
2024-04-22T11:49:01.873Z,101067.63
2024-04-22T11:51:04.108Z,101072.47
2024-04-22T11:53:14.447Z,101076.00
2024-04-22T11:55:20.107Z,101074.66
2024-04-22T11:57:22.051Z,101081.41
2024-04-22T11:59:23.973Z,101075.97
2024-04-22T12:01:26.427Z,101072.75
2024-04-22T12:03:31.205Z,101071.69
2024-04-22T12:05:33.331Z,101069.78
2024-04-22T12:07:35.780Z,101071.16
2024-04-22T12:09:37.612Z,101065.72
2024-04-22T12:11:39.574Z,101065.47
2024-04-22T12:13:41.538Z,101073.59
2024-04-22T12:15:43.502Z,101072.47
2024-04-22T12:17:45.581Z,101069.25
2024-04-22T12:19:50.034Z,101074.09
2024-04-22T12:21:52.002Z,101082.47
2024-04-22T12:23:54.154Z,101078.16
2024-04-22T12:25:56.089Z,101076.00
2024-04-22T12:28:05.580Z,101078.44
2024-04-22T12:30:15.272Z,101079.78
2024-04-22T12:32:17.406Z,101077.91
2024-04-22T12:34:19.439Z,101080.31
2024-04-22T12:36:24.030Z,101073.03
2024-04-22T12:38:25.898Z,101073.81
2024-04-22T12:40:27.852Z,101058.63
2024-04-22T12:42:29.732Z,101062.38
2024-04-22T12:44:31.466Z,101056.19
2024-04-22T12:46:33.666Z,101063.94
2024-04-22T12:48:35.462Z,101064.31
2024-04-22T12:50:37.456Z,101060.66
2024-04-22T12:52:42.209Z,101059.56
2024-04-22T12:54:44.416Z,101052.59
2024-04-22T12:56:46.212Z,101050.78
2024-04-22T12:58:48.092Z,101037.88
2024-04-22T13:00:50.298Z,101046.28
2024-04-22T13:02:52.632Z,101053.31
2024-04-22T13:04:54.484Z,101050.88
2024-04-22T13:06:56.329Z,101051.69
2024-04-22T13:09:02.449Z,101045.22
2024-04-22T13:11:05.727Z,101044.41
2024-04-22T13:13:07.625Z,101035.50
2024-04-22T13:15:09.503Z,101023.63
2024-04-22T13:17:11.395Z,101028.78
2024-04-22T13:19:13.273Z,101025.78
2024-04-22T13:21:15.029Z,101024.16
2024-04-22T13:23:16.785Z,101020.66
2024-04-22T13:25:21.283Z,101012.78
2024-04-22T13:27:23.116Z,101012.50
2024-04-22T13:29:25.078Z,101014.09
2024-04-22T13:31:36.279Z,101006.53
2024-04-22T13:33:45.796Z,101001.91
2024-04-22T13:35:47.634Z,101002.41
2024-04-22T13:37:49.444Z,100999.72
2024-04-22T13:39:51.381Z,100996.53
2024-04-22T13:41:56.116Z,100995.69
2024-04-22T13:43:57.974Z,100985.34
2024-04-22T13:46:00.002Z,100982.47
2024-04-22T13:48:02.008Z,100983.97
2024-04-22T13:50:04.726Z,100986.41
2024-04-22T13:52:06.992Z,100973.41
2024-04-22T13:54:09.090Z,100977.38
2024-04-22T13:56:11.033Z,100960.19
2024-04-22T13:58:15.492Z,100963.06
2024-04-22T14:00:18.539Z,100951.78
2024-04-22T14:02:20.510Z,100957.97
2024-04-22T14:04:22.458Z,100958.13
2024-04-22T14:06:24.410Z,100953.53
2024-04-22T14:08:26.597Z,100961.34
2024-04-22T14:10:28.594Z,100944.78
2024-04-22T14:12:30.496Z,100946.53
2024-04-22T14:14:35.358Z,100948.69
2024-04-22T14:16:37.409Z,100948.59
2024-04-22T14:18:39.336Z,100951.63
2024-04-22T14:20:41.424Z,100947.75
2024-04-22T14:22:43.311Z,100945.34
2024-04-22T14:24:45.309Z,100942.09
2024-04-22T14:26:47.323Z,100933.25
2024-04-22T14:28:49.522Z,100937.25
2024-04-22T14:30:53.940Z,100932.16
2024-04-22T14:32:55.974Z,100940.06
2024-04-22T14:34:57.931Z,100931.41
2024-04-22T14:36:59.989Z,100937.13
2024-04-22T14:39:02.146Z,100938.91
2024-04-22T14:41:04.536Z,100943.53
2024-04-22T14:43:06.446Z,100942.09
2024-04-22T14:45:08.756Z,100952.50
2024-04-22T14:47:13.300Z,100946.00
2024-04-22T14:49:15.468Z,100946.31
2024-04-22T14:51:17.374Z,100944.69
2024-04-22T14:53:20.739Z,100942.81
2024-04-22T14:55:23.392Z,100940.72
2024-04-22T14:57:25.336Z,100944.44
2024-04-22T14:59:27.211Z,100940.44
2024-04-22T15:01:29.467Z,100938.31
2024-04-22T15:03:34.992Z,100933.28
2024-04-22T15:05:36.873Z,100937.94
2024-04-22T15:07:38.985Z,100938.19
2024-04-22T15:09:41.181Z,100936.47
2024-04-22T15:11:43.053Z,100935.13
2024-04-22T15:13:45.078Z,100935.19
2024-04-22T15:15:47.400Z,100938.19
2024-04-22T15:17:49.516Z,100932.63
2024-04-22T15:19:54.252Z,100932.56
2024-04-22T15:21:56.232Z,100930.88
2024-04-22T15:23:58.358Z,100931.13
2024-04-22T15:26:00.146Z,100938.50
2024-04-22T15:28:02.250Z,100938.75
2024-04-22T15:30:05.327Z,100935.25
2024-04-22T15:32:08.342Z,100930.88
2024-04-22T15:34:10.300Z,100923.53
2024-04-22T15:36:15.668Z,100919.38
2024-04-22T15:38:17.799Z,100920.75
2024-04-22T15:40:21.328Z,100917.22
2024-04-22T15:42:23.398Z,100912.72
2024-04-22T15:44:25.209Z,100916.31
2024-04-22T15:46:27.175Z,100914.44
2024-04-22T15:48:29.745Z,100916.69
2024-04-22T15:50:31.771Z,100913.38
2024-04-22T15:52:36.728Z,100913.94
2024-04-22T15:54:38.666Z,100911.84
2024-04-22T15:56:42.191Z,100915.63
2024-04-22T15:58:44.640Z,100906.97
2024-04-22T16:00:46.546Z,100907.75
2024-04-22T16:02:48.418Z,100903.72
2024-04-22T16:04:50.338Z,100904.47
2024-04-22T16:06:52.290Z,100904.16
2024-04-22T16:08:56.912Z,100896.28
2024-04-22T16:10:58.872Z,100888.84
2024-04-22T16:13:00.732Z,100888.91
2024-04-22T16:15:02.568Z,100889.97
2024-04-22T16:17:04.883Z,100901.59
2024-04-22T16:19:09.359Z,100891.06
2024-04-22T16:21:15.433Z,100886.94
2024-04-22T16:23:19.387Z,100886.97
2024-04-22T16:25:23.963Z,100886.97
2024-04-22T16:27:25.810Z,100884.31
2024-04-22T16:29:27.841Z,100884.09
2024-04-22T16:31:29.720Z,100880.94
2024-04-22T16:33:31.861Z,100883.88
2024-04-22T16:35:35.278Z,100884.59
2024-04-22T16:37:38.843Z,100876.69
2024-04-22T16:39:40.948Z,100878.00
2024-04-22T16:41:45.529Z,100885.13
2024-04-22T16:43:47.451Z,100878.75
2024-04-22T16:45:49.342Z,100876.84
2024-04-22T16:47:51.321Z,100889.84
2024-04-22T16:49:53.339Z,100885.81
2024-04-22T16:51:55.534Z,100896.16
2024-04-22T16:53:57.428Z,100899.16
2024-04-22T16:55:59.300Z,100910.56
2024-04-22T16:58:03.762Z,100914.19
2024-04-22T17:00:06.244Z,100910.97
2024-04-22T17:02:08.215Z,100920.78
2024-04-22T17:04:10.258Z,100919.97
2024-04-22T17:06:12.558Z,100919.72
2024-04-22T17:08:14.956Z,100908.41
2024-04-22T17:10:17.287Z,100912.72
2024-04-22T17:12:19.593Z,100925.94
2024-04-22T17:14:24.157Z,100925.66
2024-04-22T17:16:26.254Z,100924.06
2024-04-22T17:18:28.284Z,100918.94
2024-04-22T17:20:30.425Z,100925.94
2024-04-22T17:22:32.439Z,100925.41
2024-04-22T17:24:34.863Z,100918.41
2024-04-22T17:26:36.920Z,100920.28
2024-04-22T17:28:39.278Z,100924.63
2024-04-22T17:30:43.713Z,100914.09
2024-04-22T17:32:45.820Z,100922.72
2024-04-22T17:34:48.048Z,100924.63
2024-04-22T17:36:49.918Z,100917.84
2024-04-22T17:38:51.746Z,100918.94
2024-04-22T17:40:54.256Z,100913.28
2024-04-22T17:42:56.406Z,100911.66
2024-04-22T17:44:58.752Z,100917.59
2024-04-22T17:47:03.588Z,100919.22
2024-04-22T17:49:07.231Z,100912.47
2024-04-22T17:51:15.329Z,100912.47
2024-04-22T17:53:17.661Z,100914.38
2024-04-22T17:55:19.681Z,100909.78
2024-04-22T17:57:21.602Z,100909.22
2024-04-22T17:59:23.755Z,100908.13
2024-04-22T18:01:25.803Z,100913.53
2024-04-22T18:03:30.302Z,100914.59
2024-04-22T18:05:32.259Z,100915.94
2024-04-22T18:07:34.540Z,100917.03
2024-04-22T18:09:36.493Z,100920.78
2024-04-22T18:11:38.750Z,100924.03
2024-04-22T18:13:40.831Z,100922.66
2024-04-22T18:15:43.042Z,100926.19
2024-04-22T18:17:44.969Z,100929.41
2024-04-22T18:19:49.952Z,100931.56
2024-04-22T18:21:51.657Z,100933.97
2024-04-22T18:23:53.762Z,100934.53
2024-04-22T18:26:02.184Z,100937.50
2024-04-22T18:28:08.360Z,100931.81
2024-04-22T18:30:11.345Z,100938.28
2024-04-22T18:32:13.439Z,100933.97
2024-04-22T18:34:15.614Z,100939.09
2024-04-22T18:36:20.594Z,100935.06
2024-04-22T18:38:22.980Z,100928.56
2024-04-22T18:40:25.087Z,100934.22
2024-04-22T18:42:27.367Z,100938.28
2024-04-22T18:44:29.361Z,100930.19
2024-04-22T18:46:31.517Z,100931.50
2024-04-22T18:48:33.728Z,100939.31
2024-04-22T18:50:35.852Z,100934.72
2024-04-22T18:52:41.072Z,100936.31
2024-04-22T18:54:43.296Z,100930.13
2024-04-22T18:56:45.563Z,100934.69
2024-04-22T18:58:48.158Z,100933.34
2024-04-22T19:00:50.607Z,100934.16
2024-04-22T19:02:55.563Z,100933.31
2024-04-22T19:04:57.801Z,100939.00
2024-04-22T19:06:59.876Z,100932.25
2024-04-22T19:09:05.181Z,100936.84
2024-04-22T19:11:07.828Z,100940.06
2024-04-22T19:13:09.999Z,100942.44
2024-04-22T19:15:12.022Z,100945.69
2024-04-22T19:17:14.377Z,100945.97
2024-04-22T19:19:17.385Z,100939.78
2024-04-22T19:21:19.508Z,100942.47
2024-04-22T19:23:26.498Z,100948.41
2024-04-22T19:25:31.483Z,100945.16
2024-04-22T19:27:33.891Z,100943.56
2024-04-22T19:29:37.647Z,100944.66
2024-04-22T19:31:39.598Z,100942.22
2024-04-22T19:33:42.510Z,100940.59
2024-04-22T19:35:50.544Z,100936.56
2024-04-22T19:37:52.767Z,100937.91
2024-04-22T19:40:00.513Z,100942.22
2024-04-22T19:42:05.834Z,100948.41
2024-04-22T19:44:07.959Z,100949.50
2024-04-22T19:46:09.852Z,100957.56
2024-04-22T19:48:12.363Z,100957.84
2024-04-22T19:50:14.644Z,100953.56
2024-04-22T19:52:16.597Z,100957.31
2024-04-22T19:54:18.944Z,100954.06
2024-04-22T19:56:20.806Z,100955.47
2024-04-22T19:58:25.280Z,100948.69
2024-04-22T20:00:27.460Z,100951.94
2024-04-22T20:02:29.508Z,100957.84
2024-04-22T20:04:31.582Z,100957.81
2024-04-22T20:06:33.494Z,100959.16
2024-04-22T20:08:35.271Z,100960.78
2024-04-22T20:10:39.990Z,100956.72
2024-04-22T20:12:42.775Z,100956.72
2024-04-22T20:14:47.811Z,100961.56
2024-04-22T20:16:52.181Z,100957.53
2024-04-22T20:18:54.863Z,100958.31
2024-04-22T20:20:57.545Z,100949.97
2024-04-22T20:22:59.849Z,100955.31
2024-04-22T20:25:02.037Z,100960.97
2024-04-22T20:27:04.452Z,100962.03
2024-04-22T20:29:06.469Z,100962.81
2024-04-22T20:31:11.400Z,100959.53
2024-04-22T20:33:13.757Z,100961.97
2024-04-22T20:35:15.972Z,100968.09
2024-04-22T20:37:18.199Z,100965.59
2024-04-22T20:39:20.269Z,100964.50
2024-04-22T20:41:22.248Z,100969.03
2024-04-22T20:43:24.493Z,100966.00
2024-04-22T20:45:26.320Z,100975.97
2024-04-22T20:47:31.341Z,100973.03
2024-04-22T20:49:33.474Z,100974.13
2024-04-22T20:51:35.532Z,100967.97
2024-04-22T20:53:37.610Z,100960.97
2024-04-22T20:55:39.724Z,100963.38
2024-04-22T20:57:41.948Z,100966.16
2024-04-22T20:59:43.794Z,100963.53
2024-04-22T21:01:45.616Z,100960.88
2024-04-22T21:03:50.394Z,100960.34
2024-04-22T21:05:55.598Z,100969.81
2024-04-22T21:07:57.520Z,100963.59
2024-04-22T21:09:59.269Z,100964.66
2024-04-22T21:12:01.040Z,100967.34
2024-04-22T21:14:03.512Z,100967.91
2024-04-22T21:16:14.585Z,100960.69
2024-04-22T21:18:20.038Z,100967.41
2024-04-22T21:20:24.826Z,100964.97
2024-04-22T21:22:26.885Z,100965.50
2024-04-22T21:24:28.836Z,100963.94
2024-04-22T21:26:33.900Z,100965.78
2024-04-22T21:28:35.847Z,100972.34
2024-04-22T21:30:37.898Z,100967.94
2024-04-22T21:32:39.853Z,100967.31
2024-04-22T21:34:41.913Z,100971.81
2024-04-22T21:36:46.638Z,100976.44
2024-04-22T21:38:48.574Z,100976.72
2024-04-22T21:40:50.744Z,100981.69
2024-04-22T21:42:52.732Z,100975.56
2024-04-22T21:44:54.558Z,100971.88
2024-04-22T21:46:56.461Z,100975.94
2024-04-22T21:48:59.306Z,100982.72
2024-04-22T21:51:01.559Z,100974.09
2024-04-22T21:53:06.209Z,100976.78
2024-04-22T21:55:11.237Z,100975.44
2024-04-22T21:57:50.622Z,100978.91
2024-04-22T22:00:29.964Z,100976.34
2024-04-22T22:03:09.000Z,100969.41
2024-04-22T22:05:48.144Z,100980.38
2024-04-22T22:07:49.675Z,100972.66
2024-04-22T22:09:55.290Z,100975.34
2024-04-22T22:11:57.251Z,100972.94
2024-04-22T22:13:59.139Z,100973.50
2024-04-22T22:16:00.954Z,100972.41
2024-04-22T22:18:03.181Z,100978.56
2024-04-22T22:20:06.935Z,100969.69
2024-04-22T22:22:08.779Z,100969.41
2024-04-22T22:24:10.900Z,100971.31
2024-04-22T22:26:16.548Z,100968.06
2024-04-22T22:28:18.306Z,100970.25
2024-04-22T22:30:20.149Z,100975.38
2024-04-22T22:32:22.100Z,100963.81
2024-04-22T22:34:23.958Z,100966.75
2024-04-22T22:36:25.763Z,100956.19
2024-04-22T22:38:27.549Z,100955.09
2024-04-22T22:40:29.355Z,100962.59
2024-04-22T22:42:33.755Z,100964.34
2024-04-22T22:44:35.644Z,100960.59
2024-04-22T22:46:37.491Z,100958.13
2024-04-22T22:48:39.251Z,100954.03
2024-04-22T22:50:41.107Z,100953.91
2024-04-22T22:52:43.340Z,100959.09
2024-04-22T22:54:45.153Z,100951.03
2024-04-22T22:56:46.907Z,100954.25
2024-04-22T22:58:51.282Z,100955.59
2024-04-22T23:00:53.192Z,100954.03
2024-04-22T23:02:55.270Z,100948.97
2024-04-22T23:04:57.106Z,100946.28
2024-04-22T23:07:05.103Z,100956.09
2024-04-22T23:09:07.081Z,100953.72
2024-04-22T23:11:09.023Z,100949.41
2024-04-22T23:13:10.904Z,100955.59
2024-04-22T23:15:15.647Z,100952.28
2024-04-22T23:17:17.520Z,100947.44
2024-04-22T23:19:19.288Z,100950.63
2024-04-22T23:21:20.992Z,100947.63
2024-04-22T23:23:22.767Z,100948.94
2024-04-22T23:25:24.625Z,100944.19